PWSweather.com
Personal Weather Stations
Station Observations
KAZPHOEN90
RayThunderhill, Phoenix, AZ

RayThunderhillPhoenix, AZ

Lat: 33.312, Lon: -112.029

Elevation: 1260

Station Type: Davis Vantage VUE

High Low Average
Temperature 107.9°F42.2°F 80.3°F26.8°F 95.1°F35.1°F
Dew Point 67.9°F19.9°F 47.1°F8.4°F 58.4°F14.7°F
Winds 4.3 mph WSW6.9 mph WSW Calm Calm 0.7 mph 1.1 mph
Wind Gusts 8.0 mph12.9 mph -- 1.5 mph2.4 mph
Humidity 57% 16% 33%
Pressure 29.74 in1007.10 in 29.57 in1001.40 in -
Precipitation 0.00 in0.00 in - -
Hour Temp Dew Point Humidity Winds Wind Gusts Pressure Precip Precip Rate Daily Precip Total
12:00 AM 89.6°F32.0°C 67.9°F19.9°C 49% 0.5 mph ESE0.8 kmh ESE 1.0 mph1.6 kmh 29.68 in1005.1 mb - 0.00 in0.0 mm 0.00 in0.0 mm
12:15 AM 88.2°F31.2°C 67.2°F19.6°C 50% Calm Calm -- 29.68 in1005.1 mb - 0.00 in0.0 mm 0.00 in0.0 mm
12:30 AM 87.0°F30.6°C 66.7°F19.3°C 51% Calm Calm -- 29.68 in1005.1 mb - 0.00 in0.0 mm 0.00 in0.0 mm
12:45 AM 86.1°F30.1°C 66.4°F19.1°C 52% Calm Calm -- 29.68 in1005.1 mb - 0.00 in0.0 mm 0.00 in0.0 mm
01:00 AM 85.8°F29.9°C 66.1°F18.9°C 52% Calm Calm -- 29.69 in1005.4 mb - 0.00 in0.0 mm 0.00 in0.0 mm
01:15 AM 85.6°F29.8°C 65.9°F18.8°C 52% Calm Calm -- 29.69 in1005.4 mb - 0.00 in0.0 mm 0.00 in0.0 mm
01:30 AM 85.1°F29.5°C 66.0°F18.9°C 53% Calm Calm -- 29.69 in1005.4 mb - 0.00 in0.0 mm 0.00 in0.0 mm
01:45 AM 84.6°F29.2°C 66.1°F18.9°C 54% Calm Calm -- 29.70 in1005.8 mb - 0.00 in0.0 mm 0.00 in0.0 mm
02:00 AM 84.3°F29.1°C 65.8°F18.8°C 54% Calm Calm -- 29.69 in1005.4 mb - 0.00 in0.0 mm 0.00 in0.0 mm
02:15 AM 84.4°F29.1°C 65.4°F18.6°C 53% Calm Calm -- 29.69 in1005.4 mb - 0.00 in0.0 mm 0.00 in0.0 mm
02:30 AM 83.8°F28.8°C 65.9°F18.8°C 55% Calm Calm -- 29.68 in1005.1 mb - 0.00 in0.0 mm 0.00 in0.0 mm
02:45 AM 83.2°F28.4°C 65.4°F18.6°C 55% Calm Calm -- 29.68 in1005.1 mb - 0.00 in0.0 mm 0.00 in0.0 mm
03:00 AM 83.6°F28.7°C 64.7°F18.2°C 53% Calm Calm -- 29.69 in1005.4 mb - 0.00 in0.0 mm 0.00 in0.0 mm
03:15 AM 83.1°F28.4°C 64.8°F18.2°C 54% Calm Calm -- 29.69 in1005.4 mb - 0.00 in0.0 mm 0.00 in0.0 mm
03:30 AM 82.8°F28.2°C 65.0°F18.3°C 55% Calm Calm -- 29.68 in1005.1 mb - 0.00 in0.0 mm 0.00 in0.0 mm
03:45 AM 82.7°F28.2°C 64.4°F18.0°C 54% Calm Calm -- 29.68 in1005.1 mb - 0.00 in0.0 mm 0.00 in0.0 mm
04:00 AM 82.8°F28.2°C 63.9°F17.7°C 53% Calm Calm -- 29.68 in1005.1 mb - 0.00 in0.0 mm 0.00 in0.0 mm
04:15 AM 81.8°F27.7°C 64.0°F17.8°C 55% Calm Calm -- 29.68 in1005.1 mb - 0.00 in0.0 mm 0.00 in0.0 mm
04:30 AM 81.8°F27.7°C 64.5°F18.1°C 56% Calm Calm -- 29.68 in1005.1 mb - 0.00 in0.0 mm 0.00 in0.0 mm
04:45 AM 81.9°F27.7°C 64.7°F18.2°C 56% Calm Calm -- 29.68 in1005.1 mb - 0.00 in0.0 mm 0.00 in0.0 mm
05:00 AM 81.6°F27.6°C 63.9°F17.7°C 55% Calm Calm -- 29.68 in1005.1 mb - 0.00 in0.0 mm 0.00 in0.0 mm
05:15 AM 81.8°F27.7°C 63.0°F17.2°C 53% Calm Calm -- 29.69 in1005.4 mb - 0.00 in0.0 mm 0.00 in0.0 mm
05:30 AM 81.7°F27.6°C 64.5°F18.1°C 56% Calm Calm -- 29.70 in1005.8 mb - 0.00 in0.0 mm 0.00 in0.0 mm
05:45 AM 81.2°F27.3°C 63.0°F17.2°C 54% Calm Calm -- 29.70 in1005.8 mb - 0.00 in0.0 mm 0.00 in0.0 mm
06:00 AM 80.9°F27.2°C 63.2°F17.3°C 55% Calm Calm -- 29.70 in1005.8 mb - 0.00 in0.0 mm 0.00 in0.0 mm
06:15 AM 80.5°F26.9°C 63.4°F17.4°C 56% Calm Calm -- 29.70 in1005.8 mb - 0.00 in0.0 mm 0.00 in0.0 mm
06:30 AM 80.4°F26.9°C 63.7°F17.6°C 57% Calm Calm -- 29.71 in1006.1 mb - 0.00 in0.0 mm 0.00 in0.0 mm
06:45 AM 80.3°F26.8°C 63.7°F17.6°C 57% Calm Calm -- 29.71 in1006.1 mb - 0.00 in0.0 mm 0.00 in0.0 mm
07:15 AM 87.2°F30.7°C 63.9°F17.7°C 46% Calm Calm -- 29.72 in1006.4 mb - 0.00 in0.0 mm 0.00 in0.0 mm
07:30 AM 89.2°F31.8°C 64.5°F18.1°C 44% Calm Calm -- 29.72 in1006.4 mb - 0.00 in0.0 mm 0.00 in0.0 mm
07:45 AM 90.8°F32.7°C 63.8°F17.7°C 41% 0.3 mph SE0.5 kmh SE 2.0 mph3.2 kmh 29.72 in1006.4 mb - 0.00 in0.0 mm 0.00 in0.0 mm
08:00 AM 91.0°F32.8°C 64.1°F17.8°C 41% Calm Calm -- 29.72 in1006.4 mb - 0.00 in0.0 mm 0.00 in0.0 mm
08:15 AM 92.0°F33.3°C 64.2°F17.9°C 40% Calm Calm -- 29.73 in1006.8 mb - 0.00 in0.0 mm 0.00 in0.0 mm
08:30 AM 92.6°F33.7°C 64.7°F18.2°C 40% 0.4 mph NW0.6 kmh NW 1.0 mph1.6 kmh 29.74 in1007.1 mb - 0.00 in0.0 mm 0.00 in0.0 mm
08:45 AM 92.8°F33.8°C 64.2°F17.9°C 39% 0.3 mph SSW0.5 kmh SSW 1.0 mph1.6 kmh 29.73 in1006.8 mb - 0.00 in0.0 mm 0.00 in0.0 mm
09:00 AM 93.1°F33.9°C 64.5°F18.1°C 39% 0.4 mph SE0.6 kmh SE 1.0 mph1.6 kmh 29.73 in1006.8 mb - 0.00 in0.0 mm 0.00 in0.0 mm
09:15 AM 94.1°F34.5°C 64.6°F18.1°C 38% 1.2 mph SE1.9 kmh SE 1.0 mph1.6 kmh 29.73 in1006.8 mb - 0.00 in0.0 mm 0.00 in0.0 mm
09:30 AM 94.7°F34.8°C 65.1°F18.4°C 38% 0.4 mph S0.6 kmh S 2.0 mph3.2 kmh 29.73 in1006.8 mb - 0.00 in0.0 mm 0.00 in0.0 mm
09:45 AM 95.9°F35.5°C 64.7°F18.2°C 36% 0.1 mph SE0.2 kmh SE 1.0 mph1.6 kmh 29.74 in1007.1 mb - 0.00 in0.0 mm 0.00 in0.0 mm
10:00 AM 95.5°F35.3°C 63.5°F17.5°C 35% 0.1 mph SSW0.2 kmh SSW 1.0 mph1.6 kmh 29.74 in1007.1 mb - 0.00 in0.0 mm 0.00 in0.0 mm
10:15 AM 95.7°F35.4°C 63.6°F17.6°C 35% 0.8 mph ESE1.3 kmh ESE 3.0 mph4.8 kmh 29.73 in1006.8 mb - 0.00 in0.0 mm 0.00 in0.0 mm
10:30 AM 97.2°F36.2°C 65.0°F18.3°C 35% 1.7 mph SE2.7 kmh SE 5.0 mph8.0 kmh 29.73 in1006.8 mb - 0.00 in0.0 mm 0.00 in0.0 mm
10:45 AM 98.0°F36.7°C 64.0°F17.8°C 33% 2.0 mph SE3.2 kmh SE 4.0 mph6.4 kmh 29.73 in1006.8 mb - 0.00 in0.0 mm 0.00 in0.0 mm
11:00 AM 98.6°F37.0°C 62.7°F17.1°C 31% 0.5 mph SW0.8 kmh SW 1.0 mph1.6 kmh 29.73 in1006.8 mb - 0.00 in0.0 mm 0.00 in0.0 mm
11:15 AM 99.8°F37.7°C 61.9°F16.6°C 29% 0.7 mph S1.1 kmh S 1.0 mph1.6 kmh 29.72 in1006.4 mb - 0.00 in0.0 mm 0.00 in0.0 mm
11:30 AM 100.6°F38.1°C 62.5°F16.9°C 29% 0.5 mph SSE0.8 kmh SSE 2.0 mph3.2 kmh 29.72 in1006.4 mb - 0.00 in0.0 mm 0.00 in0.0 mm
11:45 AM 101.7°F38.7°C 62.5°F16.9°C 28% 0.5 mph SSE0.8 kmh SSE 2.0 mph3.2 kmh 29.71 in1006.1 mb - 0.00 in0.0 mm 0.00 in0.0 mm
12:00 PM 102.3°F39.1°C 60.9°F16.1°C 26% 3.1 mph SW5.0 kmh SW 6.0 mph9.7 kmh 29.70 in1005.8 mb - 0.00 in0.0 mm 0.00 in0.0 mm
12:15 PM 102.5°F39.2°C 58.8°F14.9°C 24% 0.9 mph SW1.4 kmh SW 2.0 mph3.2 kmh 29.70 in1005.8 mb - 0.00 in0.0 mm 0.00 in0.0 mm
12:30 PM 103.7°F39.8°C 58.6°F14.8°C 23% 4.3 mph WSW6.9 kmh WSW 8.0 mph12.9 kmh 29.70 in1005.8 mb - 0.00 in0.0 mm 0.00 in0.0 mm
12:45 PM 104.1°F40.1°C 56.4°F13.6°C 21% 3.4 mph W5.5 kmh W 5.0 mph8.0 kmh 29.68 in1005.1 mb - 0.00 in0.0 mm 0.00 in0.0 mm
01:00 PM 103.2°F39.6°C 57.0°F13.9°C 22% 1.4 mph NW2.3 kmh NW 5.0 mph8.0 kmh 29.68 in1005.1 mb - 0.00 in0.0 mm 0.00 in0.0 mm
01:15 PM 103.8°F39.9°C 57.5°F14.2°C 22% 1.8 mph W2.9 kmh W 2.0 mph3.2 kmh 29.67 in1004.7 mb - 0.00 in0.0 mm 0.00 in0.0 mm
01:30 PM 104.4°F40.2°C 56.7°F13.7°C 21% 1.6 mph SW2.6 kmh SW 2.0 mph3.2 kmh 29.67 in1004.7 mb - 0.00 in0.0 mm 0.00 in0.0 mm
01:45 PM 104.7°F40.4°C 55.6°F13.1°C 20% 1.6 mph S2.6 kmh S 3.0 mph4.8 kmh 29.67 in1004.7 mb - 0.00 in0.0 mm 0.00 in0.0 mm
02:00 PM 105.7°F40.9°C 55.0°F12.8°C 19% 1.4 mph S2.3 kmh S 4.0 mph6.4 kmh 29.66 in1004.4 mb - 0.00 in0.0 mm 0.00 in0.0 mm
02:15 PM 107.0°F41.7°C 56.0°F13.3°C 19% 0.5 mph W0.8 kmh W 2.0 mph3.2 kmh 29.65 in1004.1 mb - 0.00 in0.0 mm 0.00 in0.0 mm
02:30 PM 106.0°F41.1°C 55.2°F12.9°C 19% 3.3 mph NNW5.3 kmh NNW 5.0 mph8.0 kmh 29.64 in1003.7 mb - 0.00 in0.0 mm 0.00 in0.0 mm
02:45 PM 106.1°F41.2°C 53.8°F12.1°C 18% 2.0 mph NW3.2 kmh NW 3.0 mph4.8 kmh 29.63 in1003.4 mb - 0.00 in0.0 mm 0.00 in0.0 mm
03:00 PM 105.9°F41.1°C 55.2°F12.9°C 19% 2.4 mph WSW3.9 kmh WSW 6.0 mph9.7 kmh 29.63 in1003.4 mb - 0.00 in0.0 mm 0.00 in0.0 mm
03:15 PM 106.5°F41.4°C 54.1°F12.3°C 18% 4.2 mph SE6.8 kmh SE 7.0 mph11.3 kmh 29.62 in1003.0 mb - 0.00 in0.0 mm 0.00 in0.0 mm
03:30 PM 106.6°F41.4°C 54.2°F12.3°C 18% 3.0 mph SW4.8 kmh SW 4.0 mph6.4 kmh 29.62 in1003.0 mb - 0.00 in0.0 mm 0.00 in0.0 mm
03:45 PM 107.2°F41.8°C 53.1°F11.7°C 17% 2.1 mph SW3.4 kmh SW 6.0 mph9.7 kmh 29.61 in1002.7 mb - 0.00 in0.0 mm 0.00 in0.0 mm
04:00 PM 106.4°F41.3°C 54.1°F12.3°C 18% 1.9 mph SW3.1 kmh SW 5.0 mph8.0 kmh 29.60 in1002.4 mb - 0.00 in0.0 mm 0.00 in0.0 mm
04:15 PM 106.8°F41.6°C 54.4°F12.4°C 18% 1.0 mph WSW1.6 kmh WSW 2.0 mph3.2 kmh 29.59 in1002.0 mb - 0.00 in0.0 mm 0.00 in0.0 mm
04:30 PM 107.6°F42.0°C 53.5°F11.9°C 17% 0.1 mph WNW0.2 kmh WNW 1.0 mph1.6 kmh 29.59 in1002.0 mb - 0.00 in0.0 mm 0.00 in0.0 mm
04:45 PM 107.9°F42.2°C 52.0°F11.1°C 16% 2.2 mph WSW3.5 kmh WSW 3.0 mph4.8 kmh 29.59 in1002.0 mb - 0.00 in0.0 mm 0.00 in0.0 mm
05:00 PM 107.5°F41.9°C 51.7°F10.9°C 16% 0.4 mph NNW0.6 kmh NNW 2.0 mph3.2 kmh 29.58 in1001.7 mb - 0.00 in0.0 mm 0.00 in0.0 mm
05:15 PM 107.5°F41.9°C 53.4°F11.9°C 17% Calm Calm 1.0 mph1.6 kmh 29.57 in1001.4 mb - 0.00 in0.0 mm 0.00 in0.0 mm
05:30 PM 106.6°F41.4°C 51.0°F10.6°C 16% 1.4 mph WSW2.3 kmh WSW 2.0 mph3.2 kmh 29.57 in1001.4 mb - 0.00 in0.0 mm 0.00 in0.0 mm
05:45 PM 106.6°F41.4°C 51.0°F10.6°C 16% 1.7 mph WSW2.7 kmh WSW 4.0 mph6.4 kmh 29.57 in1001.4 mb - 0.00 in0.0 mm 0.00 in0.0 mm
06:00 PM 105.4°F40.8°C 50.0°F10.0°C 16% 1.6 mph NW2.6 kmh NW 2.0 mph3.2 kmh 29.57 in1001.4 mb - 0.00 in0.0 mm 0.00 in0.0 mm
06:15 PM 104.2°F40.1°C 49.1°F9.5°C 16% 2.0 mph NW3.2 kmh NW 2.0 mph3.2 kmh 29.57 in1001.4 mb - 0.00 in0.0 mm 0.00 in0.0 mm
06:30 PM 103.6°F39.8°C 50.3°F10.2°C 17% 0.8 mph WSW1.3 kmh WSW 2.0 mph3.2 kmh 29.57 in1001.4 mb - 0.00 in0.0 mm 0.00 in0.0 mm
06:45 PM 103.1°F39.5°C 49.8°F9.9°C 17% 2.0 mph WNW3.2 kmh WNW 3.0 mph4.8 kmh 29.58 in1001.7 mb - 0.00 in0.0 mm 0.00 in0.0 mm
07:00 PM 102.5°F39.2°C 47.8°F8.8°C 16% 0.8 mph W1.3 kmh W 1.0 mph1.6 kmh 29.58 in1001.7 mb - 0.00 in0.0 mm 0.00 in0.0 mm
07:15 PM 101.7°F38.7°C 47.1°F8.4°C 16% 0.7 mph NW1.1 kmh NW 1.0 mph1.6 kmh 29.58 in1001.7 mb - 0.00 in0.0 mm 0.00 in0.0 mm
07:30 PM 100.8°F38.2°C 48.0°F8.9°C 17% Calm Calm -- 29.59 in1002.0 mb - 0.00 in0.0 mm 0.00 in0.0 mm
07:45 PM 100.4°F38.0°C 49.2°F9.6°C 18% 0.2 mph W0.3 kmh W 1.0 mph1.6 kmh 29.58 in1001.7 mb - 0.00 in0.0 mm 0.00 in0.0 mm
08:00 PM 100.3°F37.9°C 47.6°F8.7°C 17% Calm Calm -- 29.59 in1002.0 mb - 0.00 in0.0 mm 0.00 in0.0 mm
08:15 PM 98.9°F37.2°C 49.4°F9.7°C 19% Calm Calm -- 29.58 in1001.7 mb - 0.00 in0.0 mm 0.00 in0.0 mm
08:30 PM 98.3°F36.8°C 49.0°F9.4°C 19% Calm Calm 1.0 mph1.6 kmh 29.59 in1002.0 mb - 0.00 in0.0 mm 0.00 in0.0 mm
08:45 PM 98.0°F36.7°C 48.7°F9.3°C 19% Calm Calm -- 29.59 in1002.0 mb - 0.00 in0.0 mm 0.00 in0.0 mm
09:00 PM 96.7°F35.9°C 50.4°F10.2°C 21% Calm Calm -- 29.59 in1002.0 mb - 0.00 in0.0 mm 0.00 in0.0 mm
09:15 PM 95.5°F35.3°C 50.6°F10.3°C 22% Calm Calm -- 29.61 in1002.7 mb - 0.00 in0.0 mm 0.00 in0.0 mm
09:30 PM 95.5°F35.3°C 51.8°F11.0°C 23% 0.2 mph WSW0.3 kmh WSW 1.0 mph1.6 kmh 29.60 in1002.4 mb - 0.00 in0.0 mm 0.00 in0.0 mm
09:45 PM 95.6°F35.3°C 51.9°F11.1°C 23% 0.5 mph SW0.8 kmh SW 1.0 mph1.6 kmh 29.61 in1002.7 mb - 0.00 in0.0 mm 0.00 in0.0 mm
10:00 PM 94.5°F34.7°C 52.1°F11.2°C 24% Calm Calm -- 29.62 in1003.0 mb - 0.00 in0.0 mm 0.00 in0.0 mm
10:15 PM 94.7°F34.8°C 51.1°F10.6°C 23% Calm Calm 1.0 mph1.6 kmh 29.62 in1003.0 mb - 0.00 in0.0 mm 0.00 in0.0 mm
10:30 PM 95.3°F35.2°C 50.5°F10.3°C 22% Calm Calm -- 29.62 in1003.0 mb - 0.00 in0.0 mm 0.00 in0.0 mm
10:45 PM 95.6°F35.3°C 49.4°F9.7°C 21% Calm Calm -- 29.62 in1003.0 mb - 0.00 in0.0 mm 0.00 in0.0 mm
11:00 PM 95.0°F35.0°C 51.4°F10.8°C 23% Calm Calm -- 29.62 in1003.0 mb - 0.00 in0.0 mm 0.00 in0.0 mm
11:15 PM 95.2°F35.1°C 49.1°F9.5°C 21% Calm Calm 1.0 mph1.6 kmh 29.62 in1003.0 mb - 0.00 in0.0 mm 0.00 in0.0 mm
11:30 PM 95.4°F35.2°C 49.3°F9.6°C 21% 1.0 mph W1.6 kmh W 2.0 mph3.2 kmh 29.62 in1003.0 mb - 0.00 in0.0 mm 0.00 in0.0 mm
11:45 PM 97.1°F36.2°C 50.6°F10.3°C 21% 3.1 mph WSW5.0 kmh WSW 5.0 mph8.0 kmh 29.63 in1003.4 mb - 0.00 in0.0 mm 0.00 in0.0 mm